createdAt,value
2023-01-29T00:00:40.137Z,5.45
2023-01-29T00:02:04.766Z,4.45
2023-01-29T00:03:27.325Z,6.53
2023-01-29T00:04:50.827Z,5.55
2023-01-29T00:06:14.328Z,6.20
2023-01-29T00:07:36.818Z,5.82
2023-01-29T00:09:00.364Z,5.30
2023-01-29T00:10:23.990Z,9.77
2023-01-29T00:11:47.545Z,8.45
2023-01-29T00:13:09.947Z,5.45
2023-01-29T00:14:34.993Z,7.68
2023-01-29T00:15:58.555Z,7.47
2023-01-29T00:17:21.964Z,6.80
2023-01-29T00:18:45.485Z,5.45
2023-01-29T00:20:09.966Z,5.43
2023-01-29T00:21:33.724Z,7.13
2023-01-29T00:22:57.215Z,5.93
2023-01-29T00:24:19.804Z,6.03
2023-01-29T00:25:43.405Z,11.27
2023-01-29T00:27:06.835Z,6.40
2023-01-29T00:28:30.271Z,7.57
2023-01-29T00:30:12.103Z,6.53
2023-01-29T00:31:36.151Z,7.72
2023-01-29T00:32:59.810Z,5.10
2023-01-29T00:34:23.488Z,6.38
2023-01-29T00:35:46.987Z,7.60
2023-01-29T00:37:10.431Z,9.50
2023-01-29T00:38:34.548Z,8.25
2023-01-29T00:39:57.010Z,8.93
2023-01-29T00:41:38.016Z,8.80
2023-01-29T00:43:19.130Z,6.13
2023-01-29T00:45:01.709Z,9.35
2023-01-29T00:46:26.623Z,9.25
2023-01-29T00:47:49.189Z,7.72
2023-01-29T00:49:12.896Z,8.18
2023-01-29T00:50:36.396Z,7.53
2023-01-29T00:52:17.233Z,9.38
2023-01-29T00:53:40.614Z,9.57
2023-01-29T00:55:05.341Z,9.55
2023-01-29T00:56:30.753Z,7.57
2023-01-29T00:57:54.319Z,7.70
2023-01-29T00:59:16.921Z,6.72
2023-01-29T01:00:40.577Z,7.80
2023-01-29T01:02:23.197Z,7.03
2023-01-29T01:03:45.652Z,11.45
2023-01-29T01:05:14.000Z,7.47
2023-01-29T01:06:39.025Z,7.25
2023-01-29T01:08:02.546Z,12.55
2023-01-29T01:09:43.726Z,7.55
2023-01-29T01:11:07.152Z,10.88
2023-01-29T01:12:31.040Z,13.27
2023-01-29T01:13:55.044Z,8.95
2023-01-29T01:15:19.196Z,9.85
2023-01-29T01:16:42.638Z,8.00
2023-01-29T01:18:07.546Z,9.32
2023-01-29T01:19:29.985Z,12.15
2023-01-29T01:20:59.584Z,7.97
2023-01-29T01:22:23.113Z,10.35
2023-01-29T01:23:47.136Z,9.38
2023-01-29T01:25:11.077Z,10.38
2023-01-29T01:26:34.683Z,10.38
2023-01-29T01:29:20.702Z,10.73
2023-01-29T01:30:44.684Z,10.02
2023-01-29T01:32:07.317Z,12.10
2023-01-29T01:33:32.066Z,9.77
2023-01-29T01:34:54.439Z,9.40
2023-01-29T01:36:17.965Z,10.32
2023-01-29T01:37:41.706Z,11.77
2023-01-29T01:39:04.347Z,10.75
2023-01-29T01:40:28.381Z,13.98
2023-01-29T01:41:51.798Z,11.00
2023-01-29T01:43:15.265Z,13.18
2023-01-29T01:44:55.905Z,11.05
2023-01-29T01:46:19.670Z,9.23
2023-01-29T01:47:45.012Z,13.65
2023-01-29T01:49:11.282Z,10.65
2023-01-29T01:50:37.139Z,8.73
2023-01-29T01:52:01.084Z,11.90
2023-01-29T01:53:27.301Z,12.43
2023-01-29T01:54:50.816Z,11.77
2023-01-29T01:56:16.908Z,13.27
2023-01-29T01:57:39.507Z,12.40
2023-01-29T01:59:03.007Z,13.98
2023-01-29T02:00:26.847Z,12.13
2023-01-29T02:01:51.526Z,13.93
2023-01-29T02:03:32.575Z,12.18
2023-01-29T02:05:16.064Z,11.93
2023-01-29T02:06:59.420Z,12.95
2023-01-29T02:08:47.900Z,11.55
2023-01-29T02:10:15.476Z,11.02
2023-01-29T02:11:39.313Z,12.57
2023-01-29T02:13:01.738Z,10.95
2023-01-29T02:14:25.814Z,9.52
2023-01-29T02:15:48.885Z,10.77
2023-01-29T02:17:14.333Z,9.60
2023-01-29T02:18:38.131Z,11.70
2023-01-29T02:20:07.637Z,13.85
2023-01-29T02:21:56.456Z,10.13
2023-01-29T02:23:55.248Z,12.32
2023-01-29T02:25:48.659Z,13.50
2023-01-29T02:27:13.823Z,9.55
2023-01-29T02:28:41.864Z,10.77
2023-01-29T02:30:08.105Z,9.23
2023-01-29T02:31:36.157Z,12.48
2023-01-29T02:33:01.108Z,13.77
2023-01-29T02:34:53.749Z,13.02
2023-01-29T02:36:23.323Z,12.70
2023-01-29T02:37:54.947Z,11.23
2023-01-29T02:39:24.814Z,10.80
2023-01-29T02:40:52.123Z,11.25
2023-01-29T02:42:19.787Z,10.30
2023-01-29T02:43:48.756Z,13.93
2023-01-29T02:45:14.373Z,12.45
2023-01-29T02:46:40.416Z,10.52
2023-01-29T02:48:04.618Z,12.18
2023-01-29T02:49:34.163Z,11.23
2023-01-29T02:51:00.103Z,11.77
2023-01-29T02:52:25.824Z,12.82
2023-01-29T02:53:53.407Z,9.93
2023-01-29T02:55:21.452Z,11.10
2023-01-29T02:56:49.828Z,13.43
2023-01-29T02:58:16.455Z,11.25
2023-01-29T02:59:43.083Z,12.70
2023-01-29T03:01:11.483Z,11.95
2023-01-29T03:02:37.673Z,9.60
2023-01-29T03:04:05.044Z,10.27
2023-01-29T03:05:32.633Z,12.07
2023-01-29T03:06:58.784Z,11.15
2023-01-29T03:08:36.649Z,13.50
2023-01-29T03:10:00.577Z,12.25
2023-01-29T03:11:24.236Z,13.77
2023-01-29T03:12:50.912Z,14.07
2023-01-29T03:14:18.000Z,11.15
2023-01-29T03:15:46.914Z,12.77
2023-01-29T03:17:10.613Z,12.13
2023-01-29T03:18:36.764Z,10.88
2023-01-29T03:20:00.201Z,13.40
2023-01-29T03:21:45.989Z,13.65
2023-01-29T03:23:13.117Z,12.60
2023-01-29T03:24:58.386Z,13.60
2023-01-29T03:26:41.297Z,14.88
2023-01-29T03:28:23.871Z,12.88
2023-01-29T03:30:05.684Z,12.25
2023-01-29T03:31:48.984Z,14.52
2023-01-29T03:33:13.492Z,12.40
2023-01-29T03:34:42.019Z,13.90
2023-01-29T03:36:10.133Z,14.60
2023-01-29T03:37:36.626Z,15.60
2023-01-29T03:38:59.553Z,12.65
2023-01-29T03:40:23.048Z,12.50
2023-01-29T03:41:49.983Z,14.35
2023-01-29T03:43:19.898Z,12.65
2023-01-29T03:44:49.161Z,9.57
2023-01-29T03:46:18.970Z,10.20
2023-01-29T03:47:48.468Z,10.05
2023-01-29T03:49:15.850Z,12.63
2023-01-29T03:50:43.322Z,10.15
2023-01-29T03:52:13.962Z,10.90
2023-01-29T03:53:43.972Z,12.93
2023-01-29T03:55:14.396Z,11.20
2023-01-29T03:56:44.306Z,10.60
2023-01-29T03:58:16.663Z,12.10
2023-01-29T03:59:41.634Z,14.13
2023-01-29T04:01:09.338Z,11.30
2023-01-29T04:02:36.374Z,12.13
2023-01-29T04:04:06.720Z,14.80
2023-01-29T04:05:34.858Z,12.93
2023-01-29T04:07:00.775Z,10.85
2023-01-29T04:08:27.699Z,10.15
2023-01-29T04:09:55.870Z,12.48
2023-01-29T04:11:21.016Z,12.32
2023-01-29T04:12:48.389Z,12.70
2023-01-29T04:14:11.306Z,10.40
2023-01-29T04:15:37.992Z,13.20
2023-01-29T04:17:04.044Z,13.40
2023-01-29T04:18:27.628Z,11.48
2023-01-29T04:19:55.659Z,11.68
2023-01-29T04:21:22.378Z,12.90
2023-01-29T04:22:47.472Z,12.38
2023-01-29T04:24:11.618Z,14.23
2023-01-29T04:25:39.622Z,13.27
2023-01-29T04:27:13.657Z,14.18
2023-01-29T04:28:49.736Z,15.73
2023-01-29T04:30:27.906Z,13.35
2023-01-29T04:31:57.234Z,12.80
2023-01-29T04:33:29.255Z,11.98
2023-01-29T04:35:02.658Z,11.10
2023-01-29T04:36:33.791Z,11.88
2023-01-29T04:38:06.368Z,12.00
2023-01-29T04:39:35.879Z,12.00
2023-01-29T04:41:04.910Z,11.77
2023-01-29T04:42:31.786Z,12.75
2023-01-29T04:44:01.804Z,10.60
2023-01-29T04:45:32.246Z,13.02
2023-01-29T04:47:07.022Z,13.27
2023-01-29T04:48:34.071Z,11.05
2023-01-29T04:50:04.653Z,16.85
2023-01-29T04:51:35.098Z,10.07
2023-01-29T04:53:01.939Z,16.08
2023-01-29T04:54:33.725Z,12.25
2023-01-29T04:56:01.040Z,16.20
2023-01-29T04:57:27.969Z,12.65
2023-01-29T04:58:54.114Z,12.95
2023-01-29T05:00:21.584Z,11.73
2023-01-29T05:01:44.805Z,13.80
2023-01-29T05:03:09.685Z,13.32
2023-01-29T05:04:34.285Z,14.75
2023-01-29T05:06:00.488Z,12.43
2023-01-29T05:07:24.538Z,11.57
2023-01-29T05:08:49.796Z,16.73
2023-01-29T05:10:13.646Z,15.80
2023-01-29T05:11:37.607Z,12.20
2023-01-29T05:13:02.696Z,18.15
2023-01-29T05:14:27.238Z,16.45
2023-01-29T05:15:53.671Z,14.93
2023-01-29T05:17:17.942Z,12.82
2023-01-29T05:18:44.101Z,13.52
2023-01-29T05:20:08.931Z,12.05
2023-01-29T05:21:34.445Z,15.60
2023-01-29T05:22:57.895Z,14.38
2023-01-29T05:24:25.440Z,13.90
2023-01-29T05:25:49.942Z,15.00
2023-01-29T05:27:36.104Z,13.00
2023-01-29T05:28:58.704Z,15.88
2023-01-29T05:30:22.689Z,12.02
2023-01-29T05:31:46.235Z,16.95
2023-01-29T05:33:14.436Z,14.65
2023-01-29T05:34:37.990Z,16.88
2023-01-29T05:36:01.779Z,17.20
2023-01-29T05:37:25.708Z,19.42
2023-01-29T05:38:50.239Z,15.75
2023-01-29T05:40:13.402Z,17.50
2023-01-29T05:41:36.809Z,15.45
2023-01-29T05:43:00.251Z,15.07
2023-01-29T05:44:23.690Z,14.23
2023-01-29T05:45:57.135Z,14.63
2023-01-29T05:47:21.118Z,17.00
2023-01-29T05:48:44.979Z,16.40
2023-01-29T05:50:08.493Z,14.90
2023-01-29T05:51:31.992Z,17.45
2023-01-29T05:52:58.926Z,15.40
2023-01-29T05:54:22.448Z,16.70
2023-01-29T05:55:45.611Z,15.18
2023-01-29T05:57:09.082Z,16.13
2023-01-29T05:58:31.953Z,17.65
2023-01-29T05:59:55.432Z,19.00
2023-01-29T06:01:21.995Z,16.10
2023-01-29T06:02:46.375Z,14.73
2023-01-29T06:04:10.353Z,16.77
2023-01-29T06:05:33.815Z,16.15
2023-01-29T06:06:56.206Z,17.00
2023-01-29T06:08:20.950Z,17.33
2023-01-29T06:09:43.508Z,20.35
2023-01-29T06:11:10.019Z,19.13
2023-01-29T06:12:33.564Z,13.90
2023-01-29T06:13:56.067Z,17.70
2023-01-29T06:15:19.787Z,20.20
2023-01-29T06:16:43.329Z,16.08
2023-01-29T06:18:06.858Z,16.27
2023-01-29T06:19:29.325Z,18.35
2023-01-29T06:20:52.742Z,19.85
2023-01-29T06:22:16.999Z,19.95
2023-01-29T06:23:42.148Z,18.70
2023-01-29T06:25:06.725Z,14.85
2023-01-29T06:26:30.246Z,18.10
2023-01-29T06:27:52.683Z,15.27
2023-01-29T06:29:16.319Z,19.08
2023-01-29T06:30:38.812Z,17.45
2023-01-29T06:32:02.360Z,16.50
2023-01-29T06:33:25.315Z,13.27
2023-01-29T06:34:49.851Z,15.85
2023-01-29T06:36:13.360Z,14.77
2023-01-29T06:37:35.854Z,20.63
2023-01-29T06:39:01.136Z,14.27
2023-01-29T06:40:24.605Z,17.35
2023-01-29T06:41:48.048Z,20.08
2023-01-29T06:43:11.491Z,19.98
2023-01-29T06:44:34.904Z,19.13
2023-01-29T06:45:58.279Z,15.88
2023-01-29T06:47:21.758Z,20.00
2023-01-29T06:48:45.142Z,20.48
2023-01-29T06:50:09.104Z,18.42
2023-01-29T06:51:32.578Z,17.90
2023-01-29T06:52:56.035Z,17.30
2023-01-29T06:54:20.871Z,22.85
2023-01-29T06:55:43.507Z,20.10
2023-01-29T06:57:06.896Z,18.67
2023-01-29T06:58:30.346Z,20.55
2023-01-29T06:59:53.831Z,18.23
2023-01-29T07:01:34.212Z,21.30
2023-01-29T07:02:58.796Z,19.08
2023-01-29T07:04:22.280Z,18.80
2023-01-29T07:05:50.949Z,18.38
2023-01-29T07:07:14.475Z,16.85
2023-01-29T07:08:37.777Z,18.67
2023-01-29T07:10:02.709Z,18.88
2023-01-29T07:11:26.573Z,20.45
2023-01-29T07:12:50.023Z,18.13
2023-01-29T07:14:13.534Z,20.50
2023-01-29T07:15:37.299Z,17.60
2023-01-29T07:17:00.749Z,16.92
2023-01-29T07:18:24.592Z,16.67
2023-01-29T07:19:47.990Z,20.88
2023-01-29T07:21:11.407Z,17.23
2023-01-29T07:22:33.874Z,18.33
2023-01-29T07:23:57.379Z,18.30
2023-01-29T07:25:22.398Z,17.17
2023-01-29T07:26:45.805Z,19.13
2023-01-29T07:28:08.493Z,21.63
2023-01-29T07:29:31.865Z,16.27
2023-01-29T07:30:58.424Z,17.90
2023-01-29T07:32:21.939Z,19.10
2023-01-29T07:33:45.705Z,19.15
2023-01-29T07:35:10.302Z,21.05
2023-01-29T07:36:33.809Z,21.08
2023-01-29T07:37:56.181Z,21.15
2023-01-29T07:39:19.657Z,19.90
2023-01-29T07:40:44.635Z,17.15
2023-01-29T07:42:08.198Z,20.55
2023-01-29T07:43:31.631Z,22.40
2023-01-29T07:44:54.087Z,18.80
2023-01-29T07:46:17.547Z,20.77
2023-01-29T07:47:40.057Z,20.05
2023-01-29T07:49:03.502Z,18.65
2023-01-29T07:50:28.028Z,23.98
2023-01-29T07:51:51.556Z,17.08
2023-01-29T07:53:16.390Z,20.77
2023-01-29T07:54:39.789Z,15.70
2023-01-29T07:56:04.980Z,17.48
2023-01-29T07:57:28.432Z,23.20
2023-01-29T07:58:52.678Z,20.75
2023-01-29T08:00:16.430Z,26.02
2023-01-29T08:01:40.007Z,21.13
2023-01-29T08:03:04.924Z,16.95
2023-01-29T08:04:28.325Z,18.40
2023-01-29T08:05:51.794Z,18.63
2023-01-29T08:07:15.172Z,17.88
2023-01-29T08:08:38.616Z,18.10
2023-01-29T08:10:01.066Z,18.33
2023-01-29T08:11:25.860Z,19.33
2023-01-29T08:12:49.351Z,18.10
2023-01-29T08:14:12.809Z,18.17
2023-01-29T08:15:38.923Z,17.15
2023-01-29T08:17:02.684Z,18.63
2023-01-29T08:18:26.076Z,17.38
2023-01-29T08:19:49.577Z,23.08
2023-01-29T08:21:13.908Z,20.85
2023-01-29T08:22:37.378Z,21.23
2023-01-29T08:25:25.565Z,22.83
2023-01-29T08:26:50.534Z,16.25
2023-01-29T08:28:13.953Z,18.70
2023-01-29T08:29:37.545Z,16.77
2023-01-29T08:31:01.743Z,18.85
2023-01-29T08:32:25.164Z,23.55
2023-01-29T08:33:48.747Z,20.30
2023-01-29T08:35:12.165Z,22.45
2023-01-29T08:36:35.838Z,18.95
2023-01-29T08:38:00.684Z,21.90
2023-01-29T08:39:24.093Z,19.40
2023-01-29T08:40:47.554Z,21.52
2023-01-29T08:42:13.521Z,18.83
2023-01-29T08:43:38.542Z,19.65
2023-01-29T08:45:01.950Z,26.58
2023-01-29T08:46:24.370Z,16.85
2023-01-29T08:47:48.760Z,21.08
2023-01-29T08:49:12.557Z,21.83
2023-01-29T08:50:36.461Z,18.77
2023-01-29T08:52:02.363Z,22.02
2023-01-29T08:53:26.587Z,17.30
2023-01-29T08:54:49.999Z,25.27
2023-01-29T08:56:13.539Z,19.40
2023-01-29T08:57:39.429Z,20.02
2023-01-29T08:59:02.809Z,22.67
2023-01-29T09:00:25.492Z,17.17
2023-01-29T09:01:48.942Z,18.05
2023-01-29T09:03:12.488Z,17.52
2023-01-29T09:04:35.967Z,18.17
2023-01-29T09:05:59.362Z,19.15
2023-01-29T09:07:22.752Z,23.45
2023-01-29T09:08:46.163Z,21.05
2023-01-29T09:10:12.997Z,20.52
2023-01-29T09:11:36.461Z,21.38
2023-01-29T09:13:01.255Z,16.20
2023-01-29T09:14:24.863Z,18.05
2023-01-29T09:15:48.299Z,18.00
2023-01-29T09:17:11.718Z,24.58
2023-01-29T09:18:35.135Z,26.33
2023-01-29T09:19:58.755Z,20.40
2023-01-29T09:21:23.559Z,19.48
2023-01-29T09:22:47.061Z,18.73
2023-01-29T09:24:10.814Z,20.17
2023-01-29T09:25:34.210Z,20.42
2023-01-29T09:26:57.770Z,24.63
2023-01-29T09:28:22.592Z,19.08
2023-01-29T09:29:46.002Z,20.50
2023-01-29T09:31:09.948Z,19.02
2023-01-29T09:32:52.740Z,19.23
2023-01-29T09:34:17.289Z,22.27
2023-01-29T09:35:42.724Z,20.85
2023-01-29T09:37:06.470Z,16.85
2023-01-29T09:38:30.707Z,15.05
2023-01-29T09:39:54.124Z,17.98
2023-01-29T09:41:28.829Z,17.58
2023-01-29T09:42:55.509Z,15.38
2023-01-29T09:44:26.806Z,18.58
2023-01-29T09:45:55.334Z,19.90
2023-01-29T09:47:20.262Z,18.52
2023-01-29T09:48:44.117Z,18.67
2023-01-29T09:50:09.359Z,17.08
2023-01-29T09:51:36.763Z,18.02
2023-01-29T09:53:02.572Z,21.60
2023-01-29T09:54:28.527Z,18.00
2023-01-29T09:55:54.316Z,20.95
2023-01-29T09:57:22.804Z,18.58
2023-01-29T09:58:46.472Z,17.23
2023-01-29T10:00:17.072Z,15.20
2023-01-29T10:01:47.409Z,16.42
2023-01-29T10:03:26.092Z,17.70
2023-01-29T10:05:00.972Z,17.83
2023-01-29T10:06:29.731Z,17.15
2023-01-29T10:08:32.962Z,24.33
2023-01-29T10:10:21.542Z,16.92
2023-01-29T10:11:50.713Z,20.02
2023-01-29T10:13:21.210Z,20.65
2023-01-29T10:14:51.281Z,16.25
2023-01-29T10:16:32.299Z,18.27
2023-01-29T10:18:05.288Z,18.08
2023-01-29T10:19:51.591Z,19.10
2023-01-29T10:21:24.269Z,16.63
2023-01-29T10:22:56.319Z,14.60
2023-01-29T10:24:27.562Z,15.20
2023-01-29T10:25:51.969Z,14.65
2023-01-29T10:27:17.530Z,16.40
2023-01-29T10:28:46.164Z,13.75
2023-01-29T10:30:19.763Z,17.15
2023-01-29T10:31:45.491Z,16.55
2023-01-29T10:33:14.747Z,13.65
2023-01-29T10:34:41.926Z,14.57
2023-01-29T10:36:08.153Z,17.00
2023-01-29T10:37:38.279Z,15.07
2023-01-29T10:39:01.683Z,12.38
2023-01-29T10:40:28.453Z,15.98
2023-01-29T10:42:12.701Z,15.48
2023-01-29T10:43:40.490Z,20.67
2023-01-29T10:45:18.659Z,12.23
2023-01-29T10:46:57.547Z,12.20
2023-01-29T10:48:45.476Z,13.63
2023-01-29T10:50:22.843Z,11.13
2023-01-29T10:51:54.780Z,13.60
2023-01-29T10:53:32.886Z,12.18
2023-01-29T10:55:05.372Z,12.25
2023-01-29T10:56:39.801Z,14.45
2023-01-29T10:58:10.840Z,18.98
2023-01-29T10:59:45.819Z,13.68
2023-01-29T11:01:11.155Z,11.02
2023-01-29T11:02:37.170Z,12.80
2023-01-29T11:04:03.443Z,14.85
2023-01-29T11:05:30.697Z,12.57
2023-01-29T11:06:54.371Z,14.32
2023-01-29T11:08:19.568Z,11.25
2023-01-29T11:09:47.628Z,12.23
2023-01-29T11:11:14.179Z,11.80
2023-01-29T11:12:39.217Z,13.32
2023-01-29T11:14:07.178Z,13.20
2023-01-29T11:15:33.741Z,13.38
2023-01-29T11:16:57.509Z,11.88
2023-01-29T11:18:22.346Z,14.35
2023-01-29T11:19:48.581Z,15.93
2023-01-29T11:21:12.347Z,11.38
2023-01-29T11:22:36.916Z,15.82
2023-01-29T11:24:08.647Z,15.23
2023-01-29T11:25:33.552Z,9.65
2023-01-29T11:26:59.199Z,11.07
2023-01-29T11:28:38.042Z,11.90
2023-01-29T11:30:02.847Z,12.70
2023-01-29T11:31:27.772Z,11.18
2023-01-29T11:32:54.050Z,11.45
2023-01-29T11:34:22.250Z,12.45
2023-01-29T11:35:45.990Z,16.70
2023-01-29T11:37:18.428Z,12.73
2023-01-29T11:38:41.861Z,13.30
2023-01-29T11:40:37.653Z,13.75
2023-01-29T11:42:02.798Z,12.00
2023-01-29T11:43:31.535Z,13.43
2023-01-29T11:44:54.968Z,10.48
2023-01-29T11:46:18.431Z,11.65
2023-01-29T11:47:41.917Z,12.68
2023-01-29T11:49:14.370Z,10.93
2023-01-29T11:50:44.345Z,14.07
2023-01-29T11:52:09.925Z,13.25
2023-01-29T11:53:37.879Z,11.00
2023-01-29T11:55:03.636Z,11.77
2023-01-29T11:56:30.320Z,12.60
2023-01-29T11:57:55.145Z,10.80
2023-01-29T11:59:31.084Z,10.85
2023-01-29T12:00:55.657Z,13.57
2023-01-29T12:02:28.076Z,15.38
2023-01-29T12:03:53.940Z,12.80
2023-01-29T12:05:19.604Z,13.77
2023-01-29T12:06:48.495Z,11.25
2023-01-29T12:08:18.431Z,14.60
2023-01-29T12:09:42.160Z,13.95
2023-01-29T12:11:13.860Z,12.73
2023-01-29T12:12:41.583Z,10.32
2023-01-29T12:14:06.809Z,12.68
2023-01-29T12:15:30.201Z,11.63
2023-01-29T12:16:56.369Z,13.48
2023-01-29T12:18:29.746Z,12.43
2023-01-29T12:19:56.440Z,11.77
2023-01-29T12:21:24.074Z,12.45
2023-01-29T12:22:53.367Z,9.43
2023-01-29T12:24:31.691Z,12.05
2023-01-29T12:26:00.215Z,16.45
2023-01-29T12:27:29.007Z,12.80
2023-01-29T12:28:58.801Z,16.05
2023-01-29T12:30:25.618Z,12.07
2023-01-29T12:31:54.291Z,14.43
2023-01-29T12:33:36.111Z,11.75
2023-01-29T12:35:06.233Z,10.73
2023-01-29T12:36:34.625Z,15.35
2023-01-29T12:38:03.692Z,11.07
2023-01-29T12:39:27.342Z,10.80
2023-01-29T12:40:55.248Z,10.30
2023-01-29T12:42:22.566Z,13.80
2023-01-29T12:43:49.484Z,14.30
2023-01-29T12:45:18.874Z,11.57
2023-01-29T12:46:44.849Z,12.82
2023-01-29T12:48:11.158Z,11.45
2023-01-29T12:49:36.638Z,13.98
2023-01-29T12:51:06.071Z,11.43
2023-01-29T12:52:38.383Z,12.82
2023-01-29T12:54:07.561Z,11.57
2023-01-29T12:55:34.678Z,13.77
2023-01-29T12:57:01.504Z,13.70
2023-01-29T12:58:29.028Z,13.43
2023-01-29T12:59:55.223Z,12.63
2023-01-29T13:01:25.098Z,19.83
2023-01-29T13:02:54.940Z,15.75
2023-01-29T13:04:21.618Z,15.35
2023-01-29T13:05:48.443Z,14.90
2023-01-29T13:07:16.107Z,11.75
2023-01-29T13:08:43.429Z,14.63
2023-01-29T13:10:13.657Z,12.50
2023-01-29T13:11:40.945Z,13.50
2023-01-29T13:13:06.722Z,11.65
2023-01-29T13:14:34.720Z,10.70
2023-01-29T13:16:00.101Z,10.50
2023-01-29T13:17:27.943Z,12.55
2023-01-29T13:18:56.129Z,11.68
2023-01-29T13:20:22.729Z,11.95
2023-01-29T13:21:46.595Z,12.30
2023-01-29T13:23:18.746Z,14.43
2023-01-29T13:24:47.905Z,17.77
2023-01-29T13:26:18.062Z,16.45
2023-01-29T13:27:41.487Z,12.93
2023-01-29T13:29:05.911Z,13.27
2023-01-29T13:30:30.894Z,13.35
2023-01-29T13:31:55.645Z,11.50
2023-01-29T13:33:24.226Z,11.98
2023-01-29T13:34:49.282Z,12.27
2023-01-29T13:36:17.706Z,12.40
2023-01-29T13:37:48.012Z,11.20
2023-01-29T13:39:22.862Z,11.93
2023-01-29T13:40:50.835Z,14.35
2023-01-29T13:42:20.431Z,13.32
2023-01-29T13:43:45.195Z,12.23
2023-01-29T13:45:10.785Z,13.75
2023-01-29T13:46:34.413Z,13.35
2023-01-29T13:48:11.052Z,12.00
2023-01-29T13:49:39.758Z,11.55
2023-01-29T13:51:04.717Z,12.35
2023-01-29T13:52:36.459Z,13.18
2023-01-29T13:54:03.235Z,9.23
2023-01-29T13:55:32.263Z,17.50
2023-01-29T13:57:01.185Z,14.20
2023-01-29T13:58:56.445Z,11.75
2023-01-29T14:00:56.432Z,19.95
2023-01-29T14:02:25.650Z,30.05
2023-01-29T14:04:04.633Z,13.43
2023-01-29T14:05:41.180Z,13.63
2023-01-29T14:07:40.498Z,14.00
2023-01-29T14:09:03.882Z,13.15
2023-01-29T14:10:28.562Z,14.80
2023-01-29T14:11:51.045Z,16.40
2023-01-29T14:13:30.188Z,13.82
2023-01-29T14:15:05.403Z,14.10
2023-01-29T14:16:35.768Z,12.90
2023-01-29T14:18:18.758Z,16.77
2023-01-29T14:19:48.634Z,15.32
2023-01-29T14:21:23.904Z,15.25
2023-01-29T14:22:55.699Z,15.57
2023-01-29T14:26:05.412Z,16.27
2023-01-29T14:27:29.086Z,14.40
2023-01-29T14:29:00.173Z,17.02
2023-01-29T14:30:25.970Z,16.40
2023-01-29T14:31:51.599Z,16.10
2023-01-29T14:33:26.392Z,15.88
2023-01-29T14:34:51.292Z,18.40
2023-01-29T14:36:16.266Z,16.63
2023-01-29T14:37:41.671Z,13.60
2023-01-29T14:39:04.128Z,17.38
2023-01-29T14:40:29.709Z,16.63
2023-01-29T14:41:53.805Z,19.75
2023-01-29T14:43:21.545Z,18.45
2023-01-29T14:45:01.092Z,16.98
2023-01-29T14:46:45.577Z,17.85
2023-01-29T14:48:39.250Z,16.88
2023-01-29T14:50:03.893Z,16.50
2023-01-29T14:51:30.854Z,21.35
2023-01-29T14:52:54.953Z,20.27
2023-01-29T14:54:24.475Z,16.23
2023-01-29T14:55:51.143Z,16.15
2023-01-29T14:57:17.657Z,15.25
2023-01-29T14:58:45.287Z,18.80
2023-01-29T15:00:18.411Z,14.27
2023-01-29T15:01:44.912Z,18.23
2023-01-29T15:03:18.581Z,14.95
2023-01-29T15:04:47.412Z,20.23
2023-01-29T15:06:16.698Z,16.17
2023-01-29T15:07:42.834Z,17.35
2023-01-29T15:09:13.956Z,13.30
2023-01-29T15:10:43.872Z,16.33
2023-01-29T15:12:22.700Z,16.85
2023-01-29T15:13:53.858Z,17.17
2023-01-29T15:15:19.939Z,16.63
2023-01-29T15:16:51.600Z,17.15
2023-01-29T15:18:17.250Z,15.25
2023-01-29T15:19:45.671Z,19.25
2023-01-29T15:21:13.455Z,14.95
2023-01-29T15:22:44.435Z,15.65
2023-01-29T15:24:14.645Z,15.43
2023-01-29T15:25:39.030Z,13.32
2023-01-29T15:27:05.739Z,16.52
2023-01-29T15:28:32.288Z,15.75
2023-01-29T15:30:00.305Z,12.20
2023-01-29T15:31:24.170Z,12.63
2023-01-29T15:32:49.959Z,15.95
2023-01-29T15:34:13.920Z,14.63
2023-01-29T15:35:38.611Z,13.05
2023-01-29T15:37:02.018Z,13.73
2023-01-29T15:38:26.807Z,14.07
2023-01-29T15:39:52.164Z,16.60
2023-01-29T15:41:20.343Z,13.38
2023-01-29T15:42:46.691Z,12.00
2023-01-29T15:44:14.032Z,12.38
2023-01-29T15:45:42.284Z,16.80
2023-01-29T15:47:06.824Z,15.77
2023-01-29T15:48:34.222Z,15.07
2023-01-29T15:49:58.473Z,12.38
2023-01-29T15:51:23.715Z,14.27
2023-01-29T15:52:50.686Z,13.55
2023-01-29T15:54:16.918Z,13.57
2023-01-29T15:55:41.430Z,12.25
2023-01-29T15:57:05.651Z,15.93
2023-01-29T15:58:32.437Z,14.93
2023-01-29T15:59:57.875Z,14.82
2023-01-29T16:01:22.040Z,17.52
2023-01-29T16:02:45.795Z,15.13
2023-01-29T16:04:14.614Z,13.13
2023-01-29T16:05:38.059Z,15.60
2023-01-29T16:07:04.205Z,13.27
2023-01-29T16:08:28.801Z,15.80
2023-01-29T16:09:55.365Z,14.10
2023-01-29T16:11:19.535Z,16.52
2023-01-29T16:12:43.358Z,14.43
2023-01-29T16:14:07.223Z,19.30
2023-01-29T16:15:33.270Z,14.40
2023-01-29T16:16:56.785Z,16.42
2023-01-29T16:18:23.155Z,16.77
2023-01-29T16:19:57.429Z,15.15
2023-01-29T16:21:26.111Z,13.88
2023-01-29T16:22:49.637Z,13.75
2023-01-29T16:24:15.852Z,17.15
2023-01-29T16:25:40.799Z,13.50
2023-01-29T16:27:11.073Z,15.15
2023-01-29T16:28:34.743Z,17.63
2023-01-29T16:29:58.339Z,15.60
2023-01-29T16:31:28.530Z,14.95
2023-01-29T16:32:52.657Z,17.23
2023-01-29T16:34:20.331Z,16.70
2023-01-29T16:35:48.218Z,20.85
2023-01-29T16:37:21.123Z,13.80
2023-01-29T16:38:48.995Z,15.35
2023-01-29T16:40:17.013Z,14.68
2023-01-29T16:41:41.152Z,15.73
2023-01-29T16:43:44.118Z,15.80
2023-01-29T16:45:13.728Z,19.83
2023-01-29T16:46:38.190Z,18.55
2023-01-29T16:48:06.336Z,16.02
2023-01-29T16:49:47.346Z,20.25
2023-01-29T16:51:17.559Z,16.35
2023-01-29T16:52:40.961Z,17.40
2023-01-29T16:54:13.527Z,18.83
2023-01-29T16:55:40.661Z,14.98
2023-01-29T16:57:04.268Z,15.20
2023-01-29T16:58:30.325Z,14.93
2023-01-29T16:59:55.907Z,15.50
2023-01-29T17:01:19.589Z,23.02
2023-01-29T17:02:43.106Z,18.05
2023-01-29T17:04:11.323Z,20.08
2023-01-29T17:05:37.151Z,14.77
2023-01-29T17:07:04.075Z,16.90
2023-01-29T17:08:31.034Z,17.88
2023-01-29T17:09:57.274Z,16.52
2023-01-29T17:11:28.039Z,15.80
2023-01-29T17:12:57.788Z,17.70
2023-01-29T17:14:21.725Z,15.77
2023-01-29T17:15:47.477Z,17.30
2023-01-29T17:17:17.462Z,14.77
2023-01-29T17:18:40.915Z,11.82
2023-01-29T17:20:14.077Z,15.35
2023-01-29T17:21:37.487Z,12.38
2023-01-29T17:23:02.369Z,13.60
2023-01-29T17:24:25.938Z,17.65
2023-01-29T17:25:50.164Z,18.92
2023-01-29T17:27:20.057Z,15.20
2023-01-29T17:28:43.603Z,14.57
2023-01-29T17:30:08.053Z,15.25
2023-01-29T17:31:31.581Z,15.07
2023-01-29T17:32:55.155Z,16.02
2023-01-29T17:34:18.944Z,14.98
2023-01-29T17:35:43.198Z,13.98
2023-01-29T17:37:06.678Z,14.45
2023-01-29T17:38:31.553Z,17.02
2023-01-29T17:39:56.292Z,16.20
2023-01-29T17:41:23.414Z,14.75
2023-01-29T17:42:47.038Z,15.98
2023-01-29T17:44:10.719Z,13.95
2023-01-29T17:45:34.305Z,16.17
2023-01-29T17:46:57.800Z,15.15
2023-01-29T17:48:23.334Z,16.83
2023-01-29T17:49:46.769Z,13.88
2023-01-29T17:51:13.087Z,14.05
2023-01-29T17:52:36.489Z,22.48
2023-01-29T17:54:02.158Z,16.20
2023-01-29T17:55:25.835Z,17.88
2023-01-29T17:56:49.958Z,15.10
2023-01-29T17:58:17.324Z,14.80
2023-01-29T17:59:40.759Z,12.98
2023-01-29T18:01:04.471Z,18.58
2023-01-29T18:02:29.084Z,15.57
2023-01-29T18:03:53.314Z,14.20
2023-01-29T18:05:17.613Z,17.73
2023-01-29T18:06:41.800Z,20.60
2023-01-29T18:08:05.576Z,14.27
2023-01-29T18:09:30.426Z,13.63
2023-01-29T18:10:52.938Z,13.18
2023-01-29T18:12:16.399Z,13.50
2023-01-29T18:13:41.813Z,10.20
2023-01-29T18:15:05.648Z,14.02
2023-01-29T18:16:31.233Z,14.60
2023-01-29T18:17:54.674Z,15.98
2023-01-29T18:19:22.035Z,17.45
2023-01-29T18:20:46.178Z,16.40
2023-01-29T18:22:09.750Z,14.07
2023-01-29T18:23:33.220Z,15.32
2023-01-29T18:24:57.995Z,12.63
2023-01-29T18:26:22.731Z,17.45
2023-01-29T18:27:46.650Z,18.90
2023-01-29T18:29:10.127Z,14.32
2023-01-29T18:30:33.922Z,16.65
2023-01-29T18:31:57.364Z,15.07
2023-01-29T18:33:20.944Z,14.50
2023-01-29T18:34:44.394Z,14.80
2023-01-29T18:36:09.074Z,9.95
2023-01-29T18:37:32.726Z,15.45
2023-01-29T18:38:56.275Z,13.48
2023-01-29T18:40:21.267Z,13.85
2023-01-29T18:41:44.721Z,15.73
2023-01-29T18:43:08.904Z,14.43
2023-01-29T18:44:32.701Z,11.52
2023-01-29T18:45:59.745Z,14.38
2023-01-29T18:47:23.645Z,9.20
2023-01-29T18:48:47.069Z,13.88
2023-01-29T18:50:11.928Z,11.98